createdAt,value
2018-08-22T00:02:59.301Z,99.90
2018-08-22T00:07:54.465Z,99.90
2018-08-22T00:12:49.353Z,99.90
2018-08-22T00:17:44.059Z,99.90
2018-08-22T00:22:39.730Z,99.90
2018-08-22T00:27:34.545Z,99.90
2018-08-22T00:32:29.207Z,99.90
2018-08-22T00:37:23.717Z,99.90
2018-08-22T00:42:18.566Z,99.90
2018-08-22T00:47:13.466Z,99.90
2018-08-22T00:52:07.553Z,99.90
2018-08-22T00:57:02.120Z,99.90
2018-08-22T01:01:57.129Z,99.90
2018-08-22T01:06:51.711Z,99.90
2018-08-22T01:11:47.201Z,99.90
2018-08-22T01:16:41.824Z,99.90
2018-08-22T01:21:36.860Z,99.90
2018-08-22T01:26:31.574Z,99.90
2018-08-22T01:31:28.414Z,99.90
2018-08-22T01:36:23.136Z,99.90
2018-08-22T01:41:18.991Z,99.90
2018-08-22T01:46:13.617Z,99.90
2018-08-22T01:51:08.249Z,99.90
2018-08-22T01:56:02.745Z,99.90
2018-08-22T02:00:57.498Z,99.90
2018-08-22T02:05:52.222Z,99.90
2018-08-22T02:10:47.137Z,99.90
2018-08-22T02:15:41.711Z,99.90
2018-08-22T02:20:37.140Z,99.90
2018-08-22T02:25:31.752Z,99.90
2018-08-22T02:30:26.765Z,99.90
2018-08-22T02:35:21.556Z,99.90
2018-08-22T02:40:17.624Z,99.90
2018-08-22T02:45:12.543Z,99.90
2018-08-22T02:50:07.388Z,99.90
2018-08-22T02:55:02.038Z,99.90
2018-08-22T02:59:56.780Z,99.90
2018-08-22T03:04:51.378Z,99.90
2018-08-22T03:09:46.087Z,99.90
2018-08-22T03:14:40.674Z,99.90
2018-08-22T03:19:35.507Z,99.90
2018-08-22T03:24:30.355Z,99.90
2018-08-22T03:29:24.822Z,99.90
2018-08-22T03:34:19.307Z,99.90
2018-08-22T03:39:13.782Z,99.90
2018-08-22T03:44:08.385Z,99.90
2018-08-22T03:49:02.836Z,99.90
2018-08-22T03:53:57.270Z,99.90
2018-08-22T03:58:51.724Z,99.90
2018-08-22T04:03:46.370Z,99.90
2018-08-22T04:08:40.790Z,99.90
2018-08-22T04:13:35.568Z,99.90
2018-08-22T04:18:30.114Z,99.90
2018-08-22T04:23:24.574Z,99.90
2018-08-22T04:28:19.096Z,99.90
2018-08-22T04:33:13.574Z,99.90
2018-08-22T04:38:08.302Z,99.90
2018-08-22T04:43:02.805Z,99.90
2018-08-22T04:47:57.289Z,99.90
2018-08-22T04:52:52.091Z,99.90
2018-08-22T04:57:46.577Z,99.90
2018-08-22T05:02:41.578Z,99.90
2018-08-22T05:07:36.099Z,99.90
2018-08-22T05:12:30.792Z,99.90
2018-08-22T05:17:25.223Z,99.90
2018-08-22T05:22:19.813Z,99.90
2018-08-22T05:27:14.290Z,99.90
2018-08-22T05:32:08.802Z,99.90
2018-08-22T05:37:03.616Z,99.90
2018-08-22T05:41:58.372Z,99.90
2018-08-22T05:46:52.813Z,99.90
2018-08-22T05:51:47.332Z,99.90
2018-08-22T05:56:42.133Z,99.90
2018-08-22T06:01:36.711Z,99.90
2018-08-22T06:06:31.388Z,99.90
2018-08-22T06:11:25.967Z,99.90
2018-08-22T06:16:20.466Z,92.60
2018-08-22T06:21:15.261Z,83.30
2018-08-22T06:26:09.930Z,71.20
2018-08-22T06:31:04.945Z,62.70
2018-08-22T06:35:59.754Z,58.00
2018-08-22T06:40:54.530Z,55.00
2018-08-22T06:45:49.786Z,49.90
2018-08-22T06:50:44.529Z,44.10
2018-08-22T06:55:39.227Z,41.00
2018-08-22T07:00:33.994Z,38.30
2018-08-22T07:05:29.031Z,34.80
2018-08-22T07:10:23.882Z,32.40
2018-08-22T07:15:18.656Z,31.00
2018-08-22T07:20:13.697Z,29.40
2018-08-22T07:25:08.498Z,28.80
2018-08-22T07:30:03.488Z,27.80
2018-08-22T07:34:58.338Z,27.40
2018-08-22T07:39:53.112Z,26.60
2018-08-22T07:44:47.890Z,25.90
2018-08-22T07:49:42.630Z,26.10
2018-08-22T07:54:42.520Z,25.80
2018-08-22T07:59:37.499Z,25.40
2018-08-22T08:04:32.364Z,25.20
2018-08-22T08:09:27.132Z,25.00
2018-08-22T08:14:21.966Z,23.90
2018-08-22T08:19:16.684Z,22.90
2018-08-22T08:24:11.445Z,22.40
2018-08-22T08:29:06.526Z,22.00
2018-08-22T08:34:01.270Z,21.40
2018-08-22T08:38:56.326Z,20.90
2018-08-22T08:43:51.069Z,21.30
2018-08-22T08:48:45.811Z,21.00
2018-08-22T08:53:40.728Z,20.60
2018-08-22T08:58:35.698Z,20.50
2018-08-22T09:03:30.618Z,20.10
2018-08-22T09:08:25.510Z,19.70
2018-08-22T09:13:20.241Z,18.90
2018-08-22T09:18:15.395Z,18.60
2018-08-22T09:23:10.574Z,18.00
2018-08-22T09:28:05.313Z,17.80
2018-08-22T09:33:00.263Z,17.30
2018-08-22T09:37:55.171Z,16.60
2018-08-22T09:42:49.916Z,16.20
2018-08-22T09:47:45.721Z,16.50
2018-08-22T09:52:40.729Z,16.80
2018-08-22T09:57:36.314Z,17.50
2018-08-22T10:02:31.133Z,20.20
2018-08-22T10:07:25.974Z,23.20
2018-08-22T10:12:20.852Z,25.60
2018-08-22T10:17:15.739Z,27.80
2018-08-22T10:22:10.660Z,30.10
2018-08-22T10:27:05.428Z,32.70
2018-08-22T10:32:00.415Z,35.70
2018-08-22T10:36:55.305Z,38.30
2018-08-22T10:41:50.114Z,40.60
2018-08-22T10:46:44.925Z,41.80
2018-08-22T10:51:39.891Z,43.20
2018-08-22T10:56:34.859Z,44.20
2018-08-22T11:01:29.878Z,45.80
2018-08-22T11:06:24.714Z,46.50
2018-08-22T11:11:20.209Z,47.00
2018-08-22T11:16:15.561Z,47.40
2018-08-22T11:21:27.239Z,48.00
2018-08-22T11:26:38.911Z,49.30
2018-08-22T11:31:50.757Z,49.50
2018-08-22T11:37:00.371Z,49.80
2018-08-22T11:41:55.507Z,51.10
2018-08-22T11:46:50.499Z,51.30
2018-08-22T11:51:45.372Z,51.70
2018-08-22T11:56:40.116Z,51.50
2018-08-22T12:01:35.047Z,52.50
2018-08-22T12:06:30.098Z,52.40
2018-08-22T12:11:24.890Z,52.40
2018-08-22T12:16:19.772Z,52.80
2018-08-22T12:21:14.516Z,52.70
2018-08-22T12:26:10.403Z,52.40
2018-08-22T12:31:05.306Z,51.60
2018-08-22T12:36:00.623Z,51.80
2018-08-22T12:40:55.742Z,51.20
2018-08-22T12:45:50.760Z,51.00
2018-08-22T12:50:48.132Z,50.90
2018-08-22T12:55:43.057Z,50.60
2018-08-22T13:00:38.257Z,50.30
2018-08-22T13:05:33.266Z,50.00
2018-08-22T13:10:28.105Z,49.70
2018-08-22T13:15:23.700Z,49.60
2018-08-22T13:20:18.722Z,49.60
2018-08-22T13:25:14.158Z,49.70
2018-08-22T13:30:09.889Z,49.80
2018-08-22T13:35:05.292Z,49.50
2018-08-22T13:40:00.096Z,49.20
2018-08-22T13:44:55.108Z,49.20
2018-08-22T13:49:49.958Z,49.30
2018-08-22T13:54:45.024Z,49.10
2018-08-22T13:59:39.774Z,49.00
2018-08-22T14:04:36.025Z,48.80
2018-08-22T14:09:31.166Z,48.70
2018-08-22T14:14:26.082Z,48.90
2018-08-22T14:19:21.053Z,48.50
2018-08-22T14:24:15.935Z,49.20
2018-08-22T14:29:11.098Z,48.70
2018-08-22T14:34:06.499Z,48.70
2018-08-22T14:39:01.868Z,48.80
2018-08-22T14:43:56.878Z,48.70
2018-08-22T14:48:52.522Z,48.80
2018-08-22T14:53:47.411Z,48.90
2018-08-22T14:58:42.456Z,48.50
2018-08-22T15:03:39.342Z,48.80
2018-08-22T15:08:34.175Z,49.30
2018-08-22T15:13:29.074Z,49.50
2018-08-22T15:18:23.822Z,49.80
2018-08-22T15:23:18.673Z,50.00
2018-08-22T15:28:13.405Z,49.70
2018-08-22T15:33:08.339Z,50.80
2018-08-22T15:38:03.102Z,51.20
2018-08-22T15:42:57.972Z,51.70
2018-08-22T15:47:52.736Z,52.10
2018-08-22T15:52:47.559Z,52.40
2018-08-22T15:58:06.748Z,52.70
2018-08-22T16:03:02.833Z,53.80
2018-08-22T16:07:57.897Z,54.10
2018-08-22T16:12:52.792Z,55.00
2018-08-22T16:17:53.440Z,55.70
2018-08-22T16:22:48.302Z,56.00
2018-08-22T16:27:47.673Z,56.40
2018-08-22T16:32:42.591Z,56.90
2018-08-22T16:37:38.772Z,57.80
2018-08-22T16:42:38.805Z,58.40
2018-08-22T16:47:35.376Z,59.30
2018-08-22T16:52:30.189Z,60.50
2018-08-22T16:57:25.108Z,61.20
2018-08-22T17:02:20.478Z,62.10
2018-08-22T17:07:17.514Z,63.00
2018-08-22T17:12:12.328Z,64.00
2018-08-22T17:17:17.528Z,64.80
2018-08-22T17:22:28.278Z,66.20
2018-08-22T17:27:23.037Z,67.90
2018-08-22T17:32:17.775Z,69.30
2018-08-22T17:37:12.536Z,70.30
2018-08-22T17:42:07.278Z,71.40
2018-08-22T17:47:02.028Z,72.20
2018-08-22T17:51:59.540Z,73.40
2018-08-22T17:57:11.707Z,74.50
2018-08-22T18:02:06.680Z,76.00
2018-08-22T18:07:02.049Z,77.90
2018-08-22T18:11:56.924Z,79.50
2018-08-22T18:16:56.436Z,80.60
2018-08-22T18:21:51.319Z,82.90
2018-08-22T18:26:47.962Z,84.60
2018-08-22T18:31:42.483Z,85.50
2018-08-22T18:36:37.538Z,86.60
2018-08-22T18:41:32.332Z,89.10
2018-08-22T18:46:27.292Z,89.80
2018-08-22T18:51:21.860Z,90.60
2018-08-22T18:56:17.819Z,91.10
2018-08-22T19:01:12.302Z,91.80
2018-08-22T19:06:07.212Z,92.80
2018-08-22T19:11:01.710Z,93.80
2018-08-22T19:15:58.501Z,94.00
2018-08-22T19:20:56.887Z,94.40
2018-08-22T19:25:52.456Z,94.70
2018-08-22T19:30:47.210Z,95.20
2018-08-22T19:35:42.073Z,96.00
2018-08-22T19:40:37.348Z,96.10
2018-08-22T19:45:32.174Z,97.10
2018-08-22T19:50:26.959Z,97.40
2018-08-22T19:55:21.524Z,97.50
2018-08-22T20:00:16.099Z,98.00
2018-08-22T20:05:12.327Z,98.40
2018-08-22T20:10:07.491Z,99.10
2018-08-22T20:15:02.145Z,99.70
2018-08-22T20:19:57.061Z,99.90
2018-08-22T20:24:51.548Z,99.90
2018-08-22T20:29:46.360Z,99.90
2018-08-22T20:34:40.878Z,99.90
2018-08-22T20:39:35.690Z,99.90
2018-08-22T20:44:30.318Z,99.90
2018-08-22T20:49:25.653Z,99.90
2018-08-22T20:54:23.466Z,99.90
2018-08-22T20:59:19.707Z,99.90
2018-08-22T21:04:14.671Z,99.90
2018-08-22T21:09:09.952Z,99.90
2018-08-22T21:14:04.424Z,99.90
2018-08-22T21:18:58.941Z,99.90
2018-08-22T21:23:54.165Z,99.90
2018-08-22T21:28:48.629Z,99.90
2018-08-22T21:33:44.010Z,99.90
2018-08-22T21:38:38.530Z,99.90
2018-08-22T21:43:33.092Z,99.90
2018-08-22T21:48:27.597Z,99.90
2018-08-22T21:53:22.245Z,99.90
2018-08-22T21:58:16.741Z,99.90
2018-08-22T22:03:12.141Z,99.90
2018-08-22T22:08:07.165Z,99.90
2018-08-22T22:13:01.652Z,99.90
2018-08-22T22:17:56.534Z,99.90
2018-08-22T22:22:51.145Z,99.90
2018-08-22T22:27:46.578Z,99.90
2018-08-22T22:32:41.378Z,99.90
2018-08-22T22:37:36.331Z,99.90
2018-08-22T22:42:31.002Z,99.90
2018-08-22T22:47:30.899Z,99.90
2018-08-22T22:52:33.568Z,99.90
2018-08-22T22:57:29.660Z,99.90
2018-08-22T23:02:25.446Z,99.90
2018-08-22T23:07:25.870Z,99.90
2018-08-22T23:12:25.075Z,99.90
2018-08-22T23:17:19.601Z,99.90
2018-08-22T23:22:14.371Z,99.90
2018-08-22T23:27:09.003Z,99.90
2018-08-22T23:32:03.484Z,99.90
2018-08-22T23:36:58.222Z,99.90
2018-08-22T23:41:52.701Z,99.90
2018-08-22T23:46:47.219Z,99.90
2018-08-22T23:51:41.672Z,99.90
2018-08-22T23:56:36.168Z,99.90
